createdAt,value
2023-05-14T00:00:54.209Z,22.6
2023-05-14T00:01:59.400Z,22.61
2023-05-14T00:03:04.862Z,22.61
2023-05-14T00:04:10.965Z,22.61
2023-05-14T00:05:16.279Z,22.61
2023-05-14T00:06:21.459Z,22.62
2023-05-14T00:07:26.652Z,22.61
2023-05-14T00:08:31.830Z,22.61
2023-05-14T00:09:37.016Z,22.61
2023-05-14T00:10:42.242Z,22.61
2023-05-14T00:11:47.416Z,22.6
2023-05-14T00:12:52.620Z,22.62
2023-05-14T00:13:57.817Z,22.6
2023-05-14T00:15:03.056Z,22.61
2023-05-14T00:16:08.325Z,22.61
2023-05-14T00:17:13.717Z,22.6
2023-05-14T00:18:18.890Z,22.59
2023-05-14T00:19:24.050Z,22.6
2023-05-14T00:20:29.267Z,22.6
2023-05-14T00:21:34.542Z,22.59
2023-05-14T00:22:39.713Z,22.59
2023-05-14T00:23:44.891Z,22.59
2023-05-14T00:24:50.065Z,22.57
2023-05-14T00:25:55.268Z,22.57
2023-05-14T00:27:00.431Z,22.57
2023-05-14T00:28:05.614Z,22.58
2023-05-14T00:29:10.773Z,22.58
2023-05-14T00:30:15.973Z,22.58
2023-05-14T00:31:21.152Z,22.58
2023-05-14T00:32:26.437Z,22.57
2023-05-14T00:33:31.749Z,22.57
2023-05-14T00:34:36.917Z,22.55
2023-05-14T00:35:42.069Z,22.55
2023-05-14T00:36:47.253Z,22.55
2023-05-14T00:37:52.422Z,22.57
2023-05-14T00:38:57.614Z,22.57
2023-05-14T00:40:02.853Z,22.57
2023-05-14T00:41:08.030Z,22.56
2023-05-14T00:42:13.228Z,22.55
2023-05-14T00:43:18.430Z,22.56
2023-05-14T00:44:23.720Z,22.55
2023-05-14T00:45:28.950Z,22.55
2023-05-14T00:46:34.130Z,22.54
2023-05-14T00:47:39.432Z,22.52
2023-05-14T00:48:44.831Z,22.53
2023-05-14T00:49:50.016Z,22.54
2023-05-14T00:50:55.235Z,22.54
2023-05-14T00:52:00.415Z,22.53
2023-05-14T00:53:05.602Z,22.52
2023-05-14T00:54:11.279Z,22.51
2023-05-14T00:55:16.471Z,22.53
2023-05-14T00:56:21.680Z,22.53
2023-05-14T00:57:26.820Z,22.53
2023-05-14T00:58:32.010Z,22.5
2023-05-14T00:59:37.164Z,22.51
2023-05-14T01:00:42.379Z,22.52
2023-05-14T01:01:47.694Z,22.5
2023-05-14T01:02:53.029Z,22.52
2023-05-14T01:03:58.661Z,22.51
2023-05-14T01:05:04.369Z,22.51
2023-05-14T01:06:09.573Z,22.5
2023-05-14T01:07:14.890Z,22.51
2023-05-14T01:08:20.046Z,22.5
2023-05-14T01:09:25.305Z,22.5
2023-05-14T01:10:30.484Z,22.49
2023-05-14T01:11:35.677Z,22.5
2023-05-14T01:12:40.850Z,22.49
2023-05-14T01:13:46.038Z,22.48
2023-05-14T01:14:51.212Z,22.48
2023-05-14T01:15:56.398Z,22.48
2023-05-14T01:17:01.666Z,22.49
2023-05-14T01:18:06.944Z,22.48
2023-05-14T01:19:12.316Z,22.49
2023-05-14T01:20:17.768Z,22.49
2023-05-14T01:21:22.983Z,22.46
2023-05-14T01:22:28.173Z,22.48
2023-05-14T01:23:33.372Z,22.45
2023-05-14T01:24:38.547Z,22.47
2023-05-14T01:25:43.794Z,22.47
2023-05-14T01:26:48.954Z,22.45
2023-05-14T01:27:54.142Z,22.47
2023-05-14T01:28:59.306Z,22.46
2023-05-14T01:30:04.486Z,22.47
2023-05-14T01:31:09.675Z,22.46
2023-05-14T01:32:14.868Z,22.47
2023-05-14T01:33:20.322Z,22.44
2023-05-14T01:34:25.503Z,22.44
2023-05-14T01:35:30.696Z,22.44
2023-05-14T01:36:35.936Z,22.43
2023-05-14T01:37:41.096Z,22.45
2023-05-14T01:38:46.241Z,22.45
2023-05-14T01:39:51.446Z,22.43
2023-05-14T01:40:56.601Z,22.43
2023-05-14T01:42:01.789Z,22.43
2023-05-14T01:43:07.002Z,22.42
2023-05-14T01:44:12.304Z,22.44
2023-05-14T01:45:17.529Z,22.44
2023-05-14T01:46:22.758Z,22.44
2023-05-14T01:47:28.106Z,22.44
2023-05-14T01:48:33.406Z,22.44
2023-05-14T01:49:38.583Z,22.42
2023-05-14T01:50:43.789Z,22.42
2023-05-14T01:51:48.983Z,22.42
2023-05-14T01:52:54.167Z,22.41
2023-05-14T01:53:59.610Z,22.43
2023-05-14T01:55:04.820Z,22.42
2023-05-14T01:56:10.097Z,22.42
2023-05-14T01:57:15.264Z,22.4
2023-05-14T01:58:20.515Z,22.39
2023-05-14T01:59:25.677Z,22.42
2023-05-14T02:00:30.857Z,22.42
2023-05-14T02:01:36.075Z,22.42
2023-05-14T02:02:41.487Z,22.41
2023-05-14T02:03:46.740Z,22.41
2023-05-14T02:04:52.030Z,22.41
2023-05-14T02:05:57.210Z,22.4
2023-05-14T02:07:02.409Z,22.4
2023-05-14T02:08:07.629Z,22.39
2023-05-14T02:09:12.794Z,22.39
2023-05-14T02:10:17.949Z,22.38
2023-05-14T02:11:23.624Z,22.38
2023-05-14T02:12:28.812Z,22.39
2023-05-14T02:13:34.026Z,22.4
2023-05-14T02:14:39.209Z,22.4
2023-05-14T02:15:44.393Z,22.38
2023-05-14T02:16:49.721Z,22.4
2023-05-14T02:17:54.972Z,22.41
2023-05-14T02:19:00.315Z,22.38
2023-05-14T02:20:05.797Z,22.39
2023-05-14T02:21:10.982Z,22.37
2023-05-14T02:22:16.162Z,22.35
2023-05-14T02:23:25.744Z,22.38
2023-05-14T02:24:45.426Z,22.38
2023-05-14T02:25:50.576Z,22.38
2023-05-14T02:26:55.730Z,22.36
2023-05-14T02:28:00.894Z,22.36
2023-05-14T02:29:06.049Z,22.38
2023-05-14T02:30:11.196Z,22.38
2023-05-14T02:31:16.825Z,22.36
2023-05-14T02:32:22.249Z,22.37
2023-05-14T02:33:27.828Z,22.36
2023-05-14T02:34:33.230Z,22.36
2023-05-14T02:35:38.431Z,22.37
2023-05-14T02:36:43.630Z,22.37
2023-05-14T02:37:48.764Z,22.35
2023-05-14T02:38:53.937Z,22.35
2023-05-14T02:39:59.128Z,22.36
2023-05-14T02:41:04.386Z,22.34
2023-05-14T02:42:09.541Z,22.36
2023-05-14T02:43:14.744Z,22.36
2023-05-14T02:44:19.944Z,22.36
2023-05-14T02:45:25.122Z,22.36
2023-05-14T02:46:30.381Z,22.36
2023-05-14T02:47:37.673Z,22.33
2023-05-14T02:48:43.266Z,22.35
2023-05-14T02:49:48.449Z,22.34
2023-05-14T02:50:53.654Z,22.33
2023-05-14T02:51:58.930Z,22.35
2023-05-14T02:53:04.185Z,22.35
2023-05-14T02:54:09.404Z,22.33
2023-05-14T02:55:14.612Z,22.33
2023-05-14T02:56:19.793Z,22.32
2023-05-14T02:57:24.983Z,22.33
2023-05-14T02:58:30.208Z,22.34
2023-05-14T02:59:35.447Z,22.34
2023-05-14T03:00:42.058Z,22.33
2023-05-14T03:01:48.816Z,22.33
2023-05-14T03:02:55.327Z,22.33
2023-05-14T03:04:01.761Z,22.33
2023-05-14T03:05:06.951Z,22.32
2023-05-14T03:06:12.135Z,22.33
2023-05-14T03:07:17.348Z,22.32
2023-05-14T03:08:22.564Z,22.3
2023-05-14T03:09:27.740Z,22.3
2023-05-14T03:10:32.933Z,22.32
2023-05-14T03:11:38.128Z,22.3
2023-05-14T03:12:43.344Z,22.3
2023-05-14T03:13:48.536Z,22.32
2023-05-14T03:14:53.763Z,22.32
2023-05-14T03:15:58.996Z,22.32
2023-05-14T03:17:04.246Z,22.29
2023-05-14T03:18:09.570Z,22.31
2023-05-14T03:19:14.839Z,22.28
2023-05-14T03:20:20.313Z,22.29
2023-05-14T03:21:26.171Z,22.29
2023-05-14T03:22:31.377Z,22.28
2023-05-14T03:23:36.532Z,22.29
2023-05-14T03:24:41.731Z,22.27
2023-05-14T03:25:46.894Z,22.29
2023-05-14T03:26:52.051Z,22.28
2023-05-14T03:27:57.212Z,22.28
2023-05-14T03:29:02.384Z,22.28
2023-05-14T03:30:07.602Z,22.26
2023-05-14T03:31:12.831Z,22.28
2023-05-14T03:32:18.300Z,22.28
2023-05-14T03:33:23.627Z,22.27
2023-05-14T03:34:28.839Z,22.28
2023-05-14T03:35:34.024Z,22.25
2023-05-14T03:36:39.188Z,22.27
2023-05-14T03:37:44.337Z,22.27
2023-05-14T03:38:49.488Z,22.25
2023-05-14T03:39:54.684Z,22.26
2023-05-14T03:40:59.828Z,22.24
2023-05-14T03:42:05.039Z,22.26
2023-05-14T03:43:10.188Z,22.25
2023-05-14T03:44:15.368Z,22.26
2023-05-14T03:45:20.585Z,22.24
2023-05-14T03:46:25.751Z,22.26
2023-05-14T03:47:30.937Z,22.25
2023-05-14T03:48:36.476Z,22.24
2023-05-14T03:49:41.757Z,22.26
2023-05-14T03:50:46.973Z,22.25
2023-05-14T03:51:52.140Z,22.23
2023-05-14T03:52:57.322Z,22.23
2023-05-14T03:54:02.456Z,22.22
2023-05-14T03:55:07.640Z,22.24
2023-05-14T03:56:12.822Z,22.25
2023-05-14T03:57:18.007Z,22.24
2023-05-14T03:58:23.163Z,22.24
2023-05-14T03:59:28.367Z,22.24
2023-05-14T04:00:33.515Z,22.24
2023-05-14T04:01:38.725Z,22.22
2023-05-14T04:02:44.032Z,22.22
2023-05-14T04:03:49.635Z,22.23
2023-05-14T04:04:55.380Z,22.24
2023-05-14T04:06:00.612Z,22.22
2023-05-14T04:07:05.826Z,22.23
2023-05-14T04:08:11.040Z,22.23
2023-05-14T04:09:16.317Z,22.21
2023-05-14T04:10:21.794Z,22.23
2023-05-14T04:11:27.655Z,22.2
2023-05-14T04:12:32.836Z,22.19
2023-05-14T04:13:38.024Z,22.22
2023-05-14T04:14:43.255Z,22.22
2023-05-14T04:15:48.416Z,22.22
2023-05-14T04:16:53.884Z,22.21
2023-05-14T04:17:59.137Z,22.21
2023-05-14T04:19:04.581Z,22.21
2023-05-14T04:20:10.223Z,22.19
2023-05-14T04:21:15.381Z,22.2
2023-05-14T04:22:20.594Z,22.18
2023-05-14T04:23:25.801Z,22.21
2023-05-14T04:24:31.026Z,22.2
2023-05-14T04:25:36.185Z,22.2
2023-05-14T04:26:41.345Z,22.2
2023-05-14T04:27:46.525Z,22.2
2023-05-14T04:28:51.734Z,22.19
2023-05-14T04:29:56.920Z,22.19
2023-05-14T04:31:02.164Z,22.19
2023-05-14T04:32:07.401Z,22.17
2023-05-14T04:33:12.869Z,22.19
2023-05-14T04:34:18.064Z,22.16
2023-05-14T04:35:24.901Z,22.19
2023-05-14T04:36:30.359Z,22.18
2023-05-14T04:37:35.536Z,22.18
2023-05-14T04:38:40.714Z,22.18
2023-05-14T04:39:45.893Z,22.18
2023-05-14T04:40:51.071Z,22.17
2023-05-14T04:41:56.361Z,22.17
2023-05-14T04:43:01.540Z,22.17
2023-05-14T04:44:06.723Z,22.15
2023-05-14T04:45:11.928Z,22.17
2023-05-14T04:46:17.253Z,22.17
2023-05-14T04:47:22.704Z,22.15
2023-05-14T04:48:27.999Z,22.16
2023-05-14T04:49:33.173Z,22.16
2023-05-14T04:50:38.352Z,22.16
2023-05-14T04:51:43.568Z,22.16
2023-05-14T04:52:48.743Z,22.16
2023-05-14T04:53:53.970Z,22.15
2023-05-14T04:54:59.152Z,22.16
2023-05-14T04:56:04.356Z,22.15
2023-05-14T04:57:09.549Z,22.16
2023-05-14T04:58:14.751Z,22.15
2023-05-14T04:59:19.960Z,22.15
2023-05-14T05:00:25.335Z,22.15
2023-05-14T05:01:31.204Z,22.15
2023-05-14T05:02:36.674Z,22.14
2023-05-14T05:03:42.127Z,22.15
2023-05-14T05:04:47.474Z,22.15
2023-05-14T05:05:52.638Z,22.15
2023-05-14T05:06:57.833Z,22.14
2023-05-14T05:08:03.098Z,22.13
2023-05-14T05:09:08.298Z,22.14
2023-05-14T05:10:13.509Z,22.14
2023-05-14T05:11:18.690Z,22.12
2023-05-14T05:12:23.882Z,22.13
2023-05-14T05:13:29.065Z,22.11
2023-05-14T05:14:34.227Z,22.13
2023-05-14T05:15:39.443Z,22.13
2023-05-14T05:16:44.685Z,22.13
2023-05-14T05:17:49.894Z,22.11
2023-05-14T05:18:55.455Z,22.12
2023-05-14T05:20:00.785Z,22.12
2023-05-14T05:21:06.014Z,22.12
2023-05-14T05:22:11.230Z,22.12
2023-05-14T05:23:16.476Z,22.12
2023-05-14T05:24:21.654Z,22.1
2023-05-14T05:25:26.832Z,22.11
2023-05-14T05:26:32.022Z,22.11
2023-05-14T05:27:37.175Z,22.11
2023-05-14T05:28:42.369Z,22.11
2023-05-14T05:29:47.551Z,22.11
2023-05-14T05:30:52.857Z,22.11
2023-05-14T05:31:58.180Z,22.1
2023-05-14T05:33:03.487Z,22.1
2023-05-14T05:34:08.976Z,22.1
2023-05-14T05:35:14.149Z,22.1
2023-05-14T05:36:19.534Z,22.1
2023-05-14T05:37:24.686Z,22.1
2023-05-14T05:38:29.888Z,22.1
2023-05-14T05:39:35.281Z,22.1
2023-05-14T05:40:40.524Z,22.08
2023-05-14T05:41:45.781Z,22.1
2023-05-14T05:42:50.972Z,22.1
2023-05-14T05:43:56.136Z,22.1
2023-05-14T05:45:01.323Z,22.09
2023-05-14T05:46:06.522Z,22.1
2023-05-14T05:47:11.765Z,22.09
2023-05-14T05:48:16.962Z,22.09
2023-05-14T05:49:22.175Z,22.09
2023-05-14T05:50:27.421Z,22.08
2023-05-14T05:51:32.623Z,22.09
2023-05-14T05:52:37.796Z,22.1
2023-05-14T05:53:42.960Z,21.72
2023-05-14T05:54:48.131Z,21.98
2023-05-14T05:55:53.340Z,22.09
2023-05-14T05:56:58.497Z,22.09
2023-05-14T05:58:03.689Z,22.09
2023-05-14T05:59:08.907Z,22.07
2023-05-14T06:00:14.131Z,22.08
2023-05-14T06:01:19.349Z,22.08
2023-05-14T06:02:24.647Z,22.09
2023-05-14T06:03:30.106Z,22.08
2023-05-14T06:04:35.291Z,22.09
2023-05-14T06:05:40.548Z,22.09
2023-05-14T06:06:46.192Z,22.08
2023-05-14T06:07:51.357Z,22.08
2023-05-14T06:08:56.529Z,22.08
2023-05-14T06:10:01.701Z,22.08
2023-05-14T06:11:06.889Z,22.08
2023-05-14T06:12:12.085Z,22.07
2023-05-14T06:13:17.322Z,22.06
2023-05-14T06:14:22.507Z,22.08
2023-05-14T06:15:27.692Z,22.09
2023-05-14T06:16:32.907Z,22.06
2023-05-14T06:17:38.262Z,22.06
2023-05-14T06:18:43.636Z,22.08
2023-05-14T06:19:49.014Z,22.08
2023-05-14T06:20:54.227Z,22.06
2023-05-14T06:21:59.447Z,22.06
2023-05-14T06:23:04.671Z,22.08
2023-05-14T06:24:09.850Z,22.08
2023-05-14T06:25:15.058Z,22.07
2023-05-14T06:26:20.250Z,22.09
2023-05-14T06:27:25.426Z,22.09
2023-05-14T06:28:30.613Z,22.09
2023-05-14T06:29:35.774Z,22.08
2023-05-14T06:30:40.987Z,22.07
2023-05-14T06:31:46.164Z,22.09
2023-05-14T06:32:51.514Z,22.08
2023-05-14T06:33:57.056Z,22.06
2023-05-14T06:35:02.331Z,22.08
2023-05-14T06:36:07.493Z,22.08
2023-05-14T06:37:12.683Z,22.07
2023-05-14T06:38:17.850Z,22.08
2023-05-14T06:39:23.045Z,21.9
2023-05-14T06:40:28.216Z,22.06
2023-05-14T06:41:33.441Z,22.06
2023-05-14T06:42:38.626Z,22.08
2023-05-14T06:43:43.785Z,22.08
2023-05-14T06:44:48.969Z,22.07
2023-05-14T06:45:54.166Z,22.08
2023-05-14T06:46:59.392Z,22.08
2023-05-14T06:48:04.682Z,22.07
2023-05-14T06:49:10.250Z,21.78
2023-05-14T06:50:15.733Z,22.07
2023-05-14T06:51:20.895Z,22.07
2023-05-14T06:52:26.099Z,22.06
2023-05-14T06:53:31.241Z,22.06
2023-05-14T06:54:36.467Z,22.08
2023-05-14T06:55:41.712Z,22.07
2023-05-14T06:56:46.907Z,22.07
2023-05-14T06:57:52.111Z,22.06
2023-05-14T06:58:57.273Z,22.08
2023-05-14T07:00:03.599Z,22.08
2023-05-14T07:01:09.054Z,22.06
2023-05-14T07:02:14.403Z,22.07
2023-05-14T07:03:19.554Z,22.06
2023-05-14T07:04:24.821Z,22.08
2023-05-14T07:05:30.213Z,22.07
2023-05-14T07:06:35.415Z,22.08
2023-05-14T07:07:40.607Z,22.06
2023-05-14T07:08:45.856Z,22.08
2023-05-14T07:09:51.112Z,22.06
2023-05-14T07:10:56.495Z,22.05
2023-05-14T07:12:01.837Z,22.07
2023-05-14T07:13:07.003Z,22.07
2023-05-14T07:14:12.160Z,22.06
2023-05-14T07:15:17.321Z,22.05
2023-05-14T07:16:22.498Z,22.06
2023-05-14T07:17:27.969Z,22.07
2023-05-14T07:18:33.511Z,22.05
2023-05-14T07:19:38.887Z,22.08
2023-05-14T07:20:44.053Z,22.05
2023-05-14T07:21:49.214Z,22.07
2023-05-14T07:22:54.404Z,22.07
2023-05-14T07:23:59.611Z,22.07
2023-05-14T07:25:04.814Z,22.05
2023-05-14T07:26:09.999Z,22.07
2023-05-14T07:27:15.211Z,22.07
2023-05-14T07:28:20.425Z,22.08
2023-05-14T07:29:25.605Z,22.06
2023-05-14T07:30:30.784Z,22.07
2023-05-14T07:31:36.302Z,22.06
2023-05-14T07:32:41.805Z,22.06
2023-05-14T07:33:47.827Z,22.08
2023-05-14T07:34:53.048Z,22.08
2023-05-14T07:35:58.290Z,22.07
2023-05-14T07:37:03.478Z,22.08
2023-05-14T07:38:08.678Z,22.06
2023-05-14T07:39:13.881Z,22.08
2023-05-14T07:40:19.103Z,22.08
2023-05-14T07:41:24.505Z,22.08
2023-05-14T07:42:36.289Z,22.09
2023-05-14T07:43:42.126Z,22.08
2023-05-14T07:44:47.316Z,22.08
2023-05-14T07:45:52.499Z,22.09
2023-05-14T07:46:57.708Z,22.07
2023-05-14T07:48:03.081Z,22.09
2023-05-14T07:49:08.805Z,22.07
2023-05-14T07:50:14.111Z,22.07
2023-05-14T07:51:19.318Z,22.09
2023-05-14T07:52:24.512Z,22.07
2023-05-14T07:53:29.742Z,22.09
2023-05-14T07:54:34.935Z,22.09
2023-05-14T07:55:40.145Z,22.07
2023-05-14T07:56:45.323Z,22.09
2023-05-14T07:57:50.546Z,22.1
2023-05-14T07:58:55.736Z,22.08
2023-05-14T08:00:00.908Z,22.1
2023-05-14T08:01:06.091Z,22.1
2023-05-14T08:02:11.380Z,22.09
2023-05-14T08:03:16.774Z,22.1
2023-05-14T08:04:22.148Z,22.1
2023-05-14T08:05:27.726Z,22.09
2023-05-14T08:06:32.924Z,22.11
2023-05-14T08:07:38.136Z,22.1
2023-05-14T08:08:43.301Z,22.11
2023-05-14T08:09:48.516Z,22.09
2023-05-14T08:10:53.753Z,22.12
2023-05-14T08:11:59.137Z,22.12
2023-05-14T08:13:04.321Z,22.12
2023-05-14T08:14:09.477Z,22.13
2023-05-14T08:15:14.630Z,22.11
2023-05-14T08:16:19.859Z,22.13
2023-05-14T08:17:25.183Z,22.14
2023-05-14T08:18:30.567Z,22.14
2023-05-14T08:19:36.029Z,22.14
2023-05-14T08:20:41.262Z,22.14
2023-05-14T08:21:46.431Z,22.08
2023-05-14T08:22:51.634Z,22.14
2023-05-14T08:23:56.793Z,22.13
2023-05-14T08:25:02.057Z,22.09
2023-05-14T08:26:07.296Z,22.15
2023-05-14T08:27:12.546Z,22.15
2023-05-14T08:28:17.727Z,22.14
2023-05-14T08:29:22.916Z,22.16
2023-05-14T08:30:28.308Z,22.14
2023-05-14T08:31:33.870Z,22.16
2023-05-14T08:32:39.100Z,22.16
2023-05-14T08:33:44.505Z,22.15
2023-05-14T08:34:49.696Z,22.15
2023-05-14T08:35:55.077Z,22.15
2023-05-14T08:37:00.254Z,22.15
2023-05-14T08:38:05.457Z,22.17
2023-05-14T08:39:10.704Z,22.17
2023-05-14T08:40:15.878Z,22.15
2023-05-14T08:41:21.072Z,22.16
2023-05-14T08:42:26.266Z,22.18
2023-05-14T08:43:31.445Z,22.15
2023-05-14T08:44:36.679Z,22.17
2023-05-14T08:45:41.893Z,22.18
2023-05-14T08:46:47.052Z,22.16
2023-05-14T08:47:52.272Z,22.18
2023-05-14T08:48:57.757Z,22.18
2023-05-14T08:50:03.313Z,22.18
2023-05-14T08:51:08.633Z,22.19
2023-05-14T08:52:13.800Z,22.18
2023-05-14T08:53:18.977Z,22.19
2023-05-14T08:54:24.140Z,22.2
2023-05-14T08:55:29.330Z,22.19
2023-05-14T08:56:34.524Z,22.19
2023-05-14T08:57:39.691Z,22.2
2023-05-14T08:58:44.881Z,22.19
2023-05-14T08:59:50.054Z,22.21
2023-05-14T09:00:55.272Z,22.19
2023-05-14T09:02:00.535Z,22.22
2023-05-14T09:03:06.230Z,22.21
2023-05-14T09:04:11.827Z,22.19
2023-05-14T09:05:17.251Z,22.22
2023-05-14T09:06:22.492Z,22.22
2023-05-14T09:07:27.684Z,22.22
2023-05-14T09:08:32.895Z,22.22
2023-05-14T09:09:38.079Z,22.2
2023-05-14T09:10:43.267Z,22.23
2023-05-14T09:11:48.526Z,22.22
2023-05-14T09:12:53.801Z,22.23
2023-05-14T09:13:59.227Z,22.24
2023-05-14T09:15:04.478Z,22.25
2023-05-14T09:16:09.731Z,22.23
2023-05-14T09:17:15.205Z,22.26
2023-05-14T09:18:20.683Z,22.24
2023-05-14T09:19:25.986Z,22.26
2023-05-14T09:20:31.179Z,22.26
2023-05-14T09:21:36.425Z,22.27
2023-05-14T09:22:41.633Z,22.28
2023-05-14T09:23:46.874Z,22.28
2023-05-14T09:24:52.076Z,22.3
2023-05-14T09:25:57.545Z,22.29
2023-05-14T09:27:02.765Z,22.3
2023-05-14T09:28:08.141Z,22.3
2023-05-14T09:29:13.462Z,22.29
2023-05-14T09:30:18.870Z,22.3
2023-05-14T09:31:24.573Z,22.32
2023-05-14T09:32:29.885Z,22.32
2023-05-14T09:33:35.296Z,22.33
2023-05-14T09:34:40.478Z,22.33
2023-05-14T09:35:45.801Z,22.34
2023-05-14T09:36:50.975Z,22.34
2023-05-14T09:37:56.255Z,22.31
2023-05-14T09:39:01.503Z,22.32
2023-05-14T09:40:06.782Z,22.35
2023-05-14T09:41:12.020Z,22.36
2023-05-14T09:42:17.297Z,22.37
2023-05-14T09:43:22.580Z,22.35
2023-05-14T09:44:27.765Z,22.36
2023-05-14T09:45:33.028Z,22.37
2023-05-14T09:46:38.485Z,22.39
2023-05-14T09:47:43.793Z,22.39
2023-05-14T09:48:49.678Z,22.4
2023-05-14T09:49:54.855Z,22.39
2023-05-14T09:51:00.570Z,22.39
2023-05-14T09:52:08.890Z,22.41
2023-05-14T09:53:14.263Z,22.41
2023-05-14T09:54:19.513Z,22.42
2023-05-14T09:55:24.830Z,22.43
2023-05-14T09:56:30.431Z,22.43
2023-05-14T09:57:35.806Z,22.43
2023-05-14T09:58:42.644Z,22.44
2023-05-14T09:59:47.888Z,22.44
2023-05-14T10:00:53.140Z,22.44
2023-05-14T10:01:58.461Z,22.44
2023-05-14T10:03:03.672Z,22.45
2023-05-14T10:04:09.092Z,22.45
2023-05-14T10:05:14.461Z,22.46
2023-05-14T10:06:19.743Z,22.46
2023-05-14T10:07:25.006Z,22.45
2023-05-14T10:08:30.274Z,22.46
2023-05-14T10:09:35.677Z,22.46
2023-05-14T10:10:41.030Z,22.46
2023-05-14T10:11:46.220Z,22.49
2023-05-14T10:12:51.414Z,22.46
2023-05-14T10:13:56.839Z,22.47
2023-05-14T10:15:02.366Z,22.47
2023-05-14T10:16:10.371Z,22.49
2023-05-14T10:17:15.587Z,22.48
2023-05-14T10:18:21.284Z,22.47
2023-05-14T10:19:26.590Z,22.48
2023-05-14T10:20:32.064Z,22.49
2023-05-14T10:21:37.249Z,22.47
2023-05-14T10:22:42.453Z,22.48
2023-05-14T10:23:47.651Z,22.48
2023-05-14T10:24:52.830Z,22.47
2023-05-14T10:25:58.027Z,22.49
2023-05-14T10:27:03.207Z,22.48
2023-05-14T10:28:08.383Z,22.48
2023-05-14T10:29:13.559Z,22.48
2023-05-14T10:30:18.723Z,22.48
2023-05-14T10:31:24.275Z,22.47
2023-05-14T10:32:29.681Z,22.49
2023-05-14T10:33:34.922Z,22.48
2023-05-14T10:34:40.084Z,22.48
2023-05-14T10:35:45.281Z,22.49
2023-05-14T10:36:50.488Z,22.49
2023-05-14T10:37:55.652Z,22.47
2023-05-14T10:39:00.837Z,22.47
2023-05-14T10:40:06.207Z,22.47
2023-05-14T10:41:11.423Z,22.49
2023-05-14T10:42:16.607Z,22.47
2023-05-14T10:43:21.813Z,22.49
2023-05-14T10:44:27.007Z,22.49
2023-05-14T10:45:32.260Z,22.49
2023-05-14T10:46:37.628Z,22.49
2023-05-14T10:47:43.038Z,22.5
2023-05-14T10:48:48.489Z,22.49
2023-05-14T10:49:53.693Z,22.49
2023-05-14T10:50:59.156Z,22.48
2023-05-14T10:52:04.528Z,22.49
2023-05-14T10:53:09.738Z,22.48
2023-05-14T10:54:14.907Z,22.5
2023-05-14T10:55:20.051Z,22.48
2023-05-14T10:56:25.249Z,22.5
2023-05-14T10:57:30.400Z,22.48
2023-05-14T10:58:35.616Z,22.5
2023-05-14T10:59:40.806Z,22.5
2023-05-14T11:00:46.012Z,22.49
2023-05-14T11:01:51.231Z,22.51
2023-05-14T11:02:56.704Z,22.51
2023-05-14T11:04:02.148Z,22.51
2023-05-14T11:05:07.516Z,22.5
2023-05-14T11:06:12.728Z,22.49
2023-05-14T11:07:17.962Z,22.48
2023-05-14T11:08:25.577Z,22.49
2023-05-14T11:09:34.386Z,22.49
2023-05-14T11:10:39.593Z,22.52
2023-05-14T11:11:45.325Z,22.52
2023-05-14T11:12:50.501Z,22.51
2023-05-14T11:13:55.694Z,22.5
2023-05-14T11:15:00.876Z,22.52
2023-05-14T11:16:15.440Z,22.53
2023-05-14T11:17:28.203Z,22.52
2023-05-14T11:18:43.888Z,22.53
2023-05-14T11:19:51.034Z,22.54
2023-05-14T11:20:56.483Z,22.56
2023-05-14T11:22:01.667Z,22.56
2023-05-14T11:23:06.825Z,22.56
2023-05-14T11:24:12.102Z,22.56
2023-05-14T11:25:17.304Z,22.57
2023-05-14T11:26:22.529Z,22.56
2023-05-14T11:27:27.874Z,22.56
2023-05-14T11:28:33.128Z,22.57
2023-05-14T11:29:38.327Z,22.56
2023-05-14T11:30:43.507Z,22.59
2023-05-14T11:31:48.725Z,22.57
2023-05-14T11:32:54.017Z,22.59
2023-05-14T11:33:59.322Z,22.6
2023-05-14T11:35:04.532Z,22.57
2023-05-14T11:36:09.767Z,22.6
2023-05-14T11:37:14.955Z,22.61
2023-05-14T11:38:20.177Z,22.59
2023-05-14T11:39:25.383Z,22.6
2023-05-14T11:40:30.558Z,22.61
2023-05-14T11:41:35.858Z,22.62
2023-05-14T11:42:41.031Z,22.63
2023-05-14T11:43:46.218Z,22.61
2023-05-14T11:44:51.401Z,22.63
2023-05-14T11:45:56.920Z,22.63
2023-05-14T11:47:02.366Z,22.64
2023-05-14T11:48:07.589Z,22.64
2023-05-14T11:49:13.169Z,22.64
2023-05-14T11:50:18.371Z,22.65
2023-05-14T11:51:23.735Z,22.63
2023-05-14T11:52:28.931Z,22.65
2023-05-14T11:53:34.259Z,22.66
2023-05-14T11:54:39.695Z,22.66
2023-05-14T11:55:45.046Z,22.65
2023-05-14T11:56:51.842Z,22.68
2023-05-14T11:57:57.160Z,22.66
2023-05-14T11:59:02.443Z,22.68
2023-05-14T12:00:07.755Z,22.69
2023-05-14T12:01:13.356Z,22.67
2023-05-14T12:02:18.626Z,22.69
2023-05-14T12:03:24.332Z,22.67
2023-05-14T12:04:30.589Z,22.68
2023-05-14T12:05:36.113Z,22.7
2023-05-14T12:06:41.489Z,22.7
2023-05-14T12:07:46.841Z,22.7
2023-05-14T12:08:52.032Z,22.68
2023-05-14T12:09:57.245Z,22.71
2023-05-14T12:11:05.452Z,22.7
2023-05-14T12:12:10.738Z,22.7
2023-05-14T12:13:17.462Z,22.7
2023-05-14T12:14:22.726Z,22.72
2023-05-14T12:15:27.952Z,22.72
2023-05-14T12:16:34.424Z,22.71
2023-05-14T12:17:42.520Z,22.71
2023-05-14T12:18:47.849Z,22.71
2023-05-14T12:19:53.303Z,22.71
2023-05-14T12:20:58.709Z,22.73
2023-05-14T12:22:04.045Z,22.74
2023-05-14T12:23:09.325Z,22.74
2023-05-14T12:24:14.588Z,22.75
2023-05-14T12:25:19.776Z,22.74
2023-05-14T12:26:24.945Z,22.75
2023-05-14T12:27:30.162Z,22.75
2023-05-14T12:28:37.910Z,22.76
2023-05-14T12:29:43.530Z,22.75
2023-05-14T12:30:48.754Z,22.76
2023-05-14T12:31:54.124Z,22.75
2023-05-14T12:32:59.707Z,22.77
2023-05-14T12:34:05.085Z,22.77
2023-05-14T12:35:10.348Z,22.77
2023-05-14T12:36:21.526Z,22.77
2023-05-14T12:37:29.468Z,22.77
2023-05-14T12:38:35.742Z,22.78
2023-05-14T12:39:40.908Z,22.76
2023-05-14T12:40:46.098Z,22.78
2023-05-14T12:41:51.329Z,22.78
2023-05-14T12:42:56.925Z,22.78
2023-05-14T12:44:02.224Z,22.78
2023-05-14T12:45:07.561Z,22.78
2023-05-14T12:46:12.958Z,22.78
2023-05-14T12:47:18.294Z,22.77
2023-05-14T12:48:23.926Z,22.78
2023-05-14T12:49:29.141Z,22.76
2023-05-14T12:50:34.377Z,22.77
2023-05-14T12:51:42.612Z,22.76
2023-05-14T12:52:47.812Z,22.76
2023-05-14T12:53:53.146Z,22.77
2023-05-14T12:54:58.338Z,22.74
2023-05-14T12:56:03.525Z,22.75
2023-05-14T12:57:08.740Z,22.74
2023-05-14T12:58:13.907Z,22.76
2023-05-14T12:59:19.171Z,22.75
2023-05-14T13:00:24.421Z,22.75
2023-05-14T13:01:30.091Z,22.75
2023-05-14T13:02:42.049Z,22.75
2023-05-14T13:03:48.300Z,22.75
2023-05-14T13:04:53.654Z,22.75
2023-05-14T13:05:58.902Z,22.75
2023-05-14T13:07:04.153Z,22.72
2023-05-14T13:08:09.310Z,22.75
2023-05-14T13:09:14.501Z,22.74
2023-05-14T13:10:19.767Z,22.75
2023-05-14T13:11:24.928Z,22.75
2023-05-14T13:12:30.143Z,22.73
2023-05-14T13:13:35.444Z,22.75
2023-05-14T13:14:41.919Z,22.74
2023-05-14T13:15:47.098Z,22.74
2023-05-14T13:16:52.356Z,22.73
2023-05-14T13:17:57.712Z,22.75
2023-05-14T13:19:03.067Z,22.75
2023-05-14T13:20:08.325Z,22.75
2023-05-14T13:21:13.602Z,22.73
2023-05-14T13:22:18.794Z,22.75
2023-05-14T13:23:23.945Z,22.59
2023-05-14T13:24:29.172Z,22.75
2023-05-14T13:25:34.411Z,22.75
2023-05-14T13:26:39.576Z,22.75
2023-05-14T13:27:44.745Z,22.75
2023-05-14T13:28:50.012Z,22.75
2023-05-14T13:29:55.219Z,22.75
2023-05-14T13:31:00.458Z,22.75
2023-05-14T13:32:05.776Z,22.75
2023-05-14T13:33:10.964Z,22.75
2023-05-14T13:34:16.256Z,22.75
2023-05-14T13:35:21.697Z,22.74
2023-05-14T13:36:27.824Z,22.75
2023-05-14T13:37:33.083Z,22.73
2023-05-14T13:38:38.265Z,22.73
2023-05-14T13:39:43.450Z,22.75
2023-05-14T13:40:48.617Z,22.75
2023-05-14T13:41:53.784Z,22.74
2023-05-14T13:42:58.965Z,22.73
2023-05-14T13:44:04.149Z,22.76
2023-05-14T13:45:09.325Z,22.76
2023-05-14T13:46:14.529Z,22.74
2023-05-14T13:47:19.820Z,22.76
2023-05-14T13:48:25.122Z,22.77
2023-05-14T13:49:30.264Z,22.75
2023-05-14T13:50:35.465Z,22.77
2023-05-14T13:51:40.672Z,22.75
2023-05-14T13:52:45.868Z,22.77
2023-05-14T13:53:51.068Z,22.78
2023-05-14T13:54:57.221Z,22.78
2023-05-14T13:56:02.390Z,22.77
2023-05-14T13:57:07.571Z,22.78
2023-05-14T13:58:12.739Z,22.76
2023-05-14T13:59:18.023Z,22.77
2023-05-14T14:00:23.221Z,22.78
2023-05-14T14:01:28.412Z,22.79
2023-05-14T14:02:34.227Z,22.78
2023-05-14T14:03:39.824Z,22.8
2023-05-14T14:04:45.024Z,22.75
2023-05-14T14:05:50.276Z,22.79